createdAt,value
2023-01-29T00:02:22.726Z,102305.44
2023-01-29T00:05:28.186Z,102302.25
2023-01-29T00:08:31.106Z,102291.81
2023-01-29T00:11:33.909Z,102289.84
2023-01-29T00:14:37.846Z,102300.00
2023-01-29T00:17:40.456Z,102281.88
2023-01-29T00:20:44.480Z,102282.63
2023-01-29T00:23:47.352Z,102273.88
2023-01-29T00:26:50.010Z,102261.88
2023-01-29T00:30:07.912Z,102257.28
2023-01-29T00:33:11.813Z,102256.53
2023-01-29T00:36:16.153Z,102243.38
2023-01-29T00:39:31.355Z,102245.28
2023-01-29T00:42:53.712Z,102239.28
2023-01-29T00:45:57.647Z,102243.31
2023-01-29T00:49:00.977Z,102241.72
2023-01-29T00:52:21.094Z,102240.56
2023-01-29T00:55:23.838Z,102242.38
2023-01-29T00:58:34.463Z,102243.94
2023-01-29T01:01:56.129Z,102238.75
2023-01-29T01:04:58.819Z,102244.06
2023-01-29T01:08:01.393Z,102247.56
2023-01-29T01:11:05.650Z,102249.19
2023-01-29T01:14:08.266Z,102242.50
2023-01-29T01:17:12.221Z,102247.69
2023-01-29T01:20:15.298Z,102246.75
2023-01-29T01:23:19.542Z,102256.56
2023-01-29T01:26:22.314Z,102240.75
2023-01-29T01:29:24.985Z,102247.94
2023-01-29T01:32:28.929Z,102248.97
2023-01-29T01:35:31.672Z,102246.13
2023-01-29T01:38:34.248Z,102247.81
2023-01-29T01:41:36.933Z,102258.59
2023-01-29T01:44:54.889Z,102261.94
2023-01-29T01:48:03.492Z,102250.44
2023-01-29T01:51:06.959Z,102244.59
2023-01-29T01:54:13.957Z,102251.47
2023-01-29T01:57:25.204Z,102250.59
2023-01-29T02:00:28.067Z,102255.09
2023-01-29T02:03:51.883Z,102248.09
2023-01-29T02:07:14.159Z,102236.66
2023-01-29T02:10:18.287Z,102232.94
2023-01-29T02:13:21.277Z,102240.81
2023-01-29T02:16:24.787Z,102237.19
2023-01-29T02:19:40.240Z,102233.81
2023-01-29T02:23:15.372Z,102230.97
2023-01-29T02:26:35.297Z,102216.13
2023-01-29T02:29:53.608Z,102220.63
2023-01-29T02:33:01.829Z,102218.16
2023-01-29T02:36:15.249Z,102217.19
2023-01-29T02:39:29.338Z,102213.75
2023-01-29T02:42:37.421Z,102211.94
2023-01-29T02:45:47.703Z,102218.94
2023-01-29T02:48:56.764Z,102215.38
2023-01-29T02:52:04.213Z,102223.53
2023-01-29T02:55:13.550Z,102222.75
2023-01-29T02:58:21.853Z,102203.28
2023-01-29T03:01:31.636Z,102198.97
2023-01-29T03:04:42.512Z,102197.31
2023-01-29T03:07:52.031Z,102187.63
2023-01-29T03:11:00.195Z,102178.00
2023-01-29T03:14:07.393Z,102177.09
2023-01-29T03:17:11.738Z,102168.44
2023-01-29T03:20:19.744Z,102163.03
2023-01-29T03:23:27.140Z,102159.69
2023-01-29T03:26:47.423Z,102158.66
2023-01-29T03:30:11.896Z,102157.81
2023-01-29T03:33:18.814Z,102157.94
2023-01-29T03:36:28.904Z,102149.03
2023-01-29T03:39:31.643Z,102157.72
2023-01-29T03:42:50.720Z,102147.38
2023-01-29T03:46:01.255Z,102136.94
2023-01-29T03:49:12.468Z,102145.47
2023-01-29T03:52:20.356Z,102146.44
2023-01-29T03:55:31.105Z,102141.97
2023-01-29T03:58:40.975Z,102141.13
2023-01-29T04:01:48.610Z,102128.97
2023-01-29T04:04:55.887Z,102132.34
2023-01-29T04:08:04.244Z,102121.66
2023-01-29T04:11:13.515Z,102129.41
2023-01-29T04:14:16.691Z,102128.06
2023-01-29T04:17:23.770Z,102121.06
2023-01-29T04:20:27.923Z,102123.72
2023-01-29T04:23:30.503Z,102117.66
2023-01-29T04:26:50.477Z,102107.13
2023-01-29T04:30:03.744Z,102103.75
2023-01-29T04:33:13.293Z,102111.63
2023-01-29T04:36:29.463Z,102113.19
2023-01-29T04:39:41.318Z,102106.09
2023-01-29T04:42:51.115Z,102115.88
2023-01-29T04:46:07.818Z,102123.84
2023-01-29T04:49:19.634Z,102132.50
2023-01-29T04:52:32.976Z,102130.75
2023-01-29T04:55:42.341Z,102128.97
2023-01-29T04:58:49.835Z,102141.19
2023-01-29T05:01:53.163Z,102143.88
2023-01-29T05:04:58.445Z,102138.47
2023-01-29T05:08:03.785Z,102140.22
2023-01-29T05:11:06.998Z,102136.94
2023-01-29T05:14:14.696Z,102131.41
2023-01-29T05:17:21.045Z,102121.78
2023-01-29T05:20:23.878Z,102129.69
2023-01-29T05:23:27.894Z,102116.78
2023-01-29T05:26:48.227Z,102108.75
2023-01-29T05:29:50.822Z,102111.19
2023-01-29T05:32:53.570Z,102106.13
2023-01-29T05:35:56.855Z,102112.44
2023-01-29T05:39:00.773Z,102126.47
2023-01-29T05:42:03.565Z,102104.47
2023-01-29T05:45:07.221Z,102111.34
2023-01-29T05:48:09.841Z,102104.50
2023-01-29T05:51:12.455Z,102104.38
2023-01-29T05:54:16.573Z,102103.66
2023-01-29T05:57:19.254Z,102099.25
2023-01-29T06:00:22.411Z,102108.00
2023-01-29T06:03:24.998Z,102114.09
2023-01-29T06:06:27.602Z,102123.78
2023-01-29T06:09:31.687Z,102122.13
2023-01-29T06:12:34.331Z,102133.47
2023-01-29T06:15:36.911Z,102126.47
2023-01-29T06:18:40.172Z,102116.72
2023-01-29T06:21:42.756Z,102101.88
2023-01-29T06:24:46.707Z,102097.34
2023-01-29T06:27:51.666Z,102079.84
2023-01-29T06:30:54.330Z,102074.69
2023-01-29T06:33:56.935Z,102090.50
2023-01-29T06:36:59.536Z,102083.31
2023-01-29T06:40:03.557Z,102087.88
2023-01-29T06:43:06.159Z,102082.69
2023-01-29T06:46:09.401Z,102070.25
2023-01-29T06:49:12.063Z,102059.53
2023-01-29T06:52:14.637Z,102062.06
2023-01-29T06:55:18.609Z,102048.16
2023-01-29T06:58:21.959Z,102051.53
2023-01-29T07:01:35.581Z,102037.38
2023-01-29T07:04:39.187Z,102040.69
2023-01-29T07:07:41.824Z,102041.66
2023-01-29T07:10:45.848Z,102049.56
2023-01-29T07:13:48.435Z,102047.06
2023-01-29T07:16:51.042Z,102044.31
2023-01-29T07:19:53.617Z,102038.09
2023-01-29T07:22:58.048Z,102055.75
2023-01-29T07:26:04.091Z,102059.94
2023-01-29T07:29:06.697Z,102054.91
2023-01-29T07:32:09.440Z,102053.81
2023-01-29T07:35:12.141Z,102058.41
2023-01-29T07:38:14.755Z,102048.84
2023-01-29T07:41:18.744Z,102047.53
2023-01-29T07:44:21.305Z,102025.72
2023-01-29T07:47:23.883Z,102012.44
2023-01-29T07:50:28.165Z,102014.44
2023-01-29T07:53:31.733Z,102016.19
2023-01-29T07:56:35.671Z,102011.81
2023-01-29T07:59:38.247Z,102014.38
2023-01-29T08:02:40.986Z,102010.06
2023-01-29T08:05:44.042Z,102016.88
2023-01-29T08:08:46.717Z,102002.91
2023-01-29T08:11:50.646Z,102002.78
2023-01-29T08:14:53.250Z,102007.22
2023-01-29T08:17:58.025Z,102001.97
2023-01-29T08:21:01.853Z,101992.41
2023-01-29T08:24:04.892Z,102009.94
2023-01-29T08:27:08.883Z,102008.91
2023-01-29T08:30:12.917Z,102007.47
2023-01-29T08:33:17.566Z,102011.91
2023-01-29T08:36:20.315Z,102021.63
2023-01-29T08:39:22.909Z,102019.84
2023-01-29T08:42:26.979Z,102017.44
2023-01-29T08:45:30.060Z,102018.28
2023-01-29T08:48:33.223Z,102011.28
2023-01-29T08:51:35.791Z,102011.06
2023-01-29T08:54:38.403Z,102007.63
2023-01-29T08:57:42.340Z,102008.47
2023-01-29T09:00:45.049Z,102004.25
2023-01-29T09:03:47.625Z,102012.16
2023-01-29T09:06:50.226Z,102010.41
2023-01-29T09:09:52.817Z,102012.06
2023-01-29T09:12:56.794Z,102021.72
2023-01-29T09:16:01.085Z,102017.50
2023-01-29T09:19:03.653Z,102009.63
2023-01-29T09:22:06.310Z,102008.91
2023-01-29T09:25:10.761Z,102006.13
2023-01-29T09:28:14.727Z,102000.03
2023-01-29T09:31:17.564Z,102011.34
2023-01-29T09:34:20.312Z,101993.00
2023-01-29T09:37:23.912Z,101993.88
2023-01-29T09:40:28.039Z,101985.97
2023-01-29T09:43:43.885Z,101978.16
2023-01-29T09:46:51.334Z,101980.00
2023-01-29T09:49:58.788Z,101978.22
2023-01-29T09:53:09.690Z,101973.91
2023-01-29T09:56:15.004Z,101960.00
2023-01-29T09:59:22.333Z,101949.53
2023-01-29T10:02:44.002Z,101936.31
2023-01-29T10:06:00.217Z,101938.91
2023-01-29T10:09:36.107Z,101928.41
2023-01-29T10:12:54.536Z,101920.50
2023-01-29T10:16:13.799Z,101927.53
2023-01-29T10:19:36.324Z,101910.84
2023-01-29T10:22:51.779Z,101914.41
2023-01-29T10:25:55.406Z,101910.03
2023-01-29T10:29:00.122Z,101911.78
2023-01-29T10:32:05.914Z,101905.66
2023-01-29T10:35:21.416Z,101889.84
2023-01-29T10:38:36.173Z,101875.06
2023-01-29T10:41:57.222Z,101880.34
2023-01-29T10:45:19.575Z,101876.00
2023-01-29T10:48:45.615Z,101870.72
2023-01-29T10:52:03.264Z,101870.69
2023-01-29T10:55:21.807Z,101870.69
2023-01-29T10:58:32.664Z,101853.25
2023-01-29T11:01:35.338Z,101861.13
2023-01-29T11:04:39.699Z,101852.38
2023-01-29T11:07:42.402Z,101859.38
2023-01-29T11:10:55.291Z,101853.25
2023-01-29T11:14:01.200Z,101849.75
2023-01-29T11:17:03.862Z,101845.34
2023-01-29T11:20:27.529Z,101842.69
2023-01-29T11:23:32.454Z,101856.69
2023-01-29T11:26:39.016Z,101854.09
2023-01-29T11:29:44.604Z,101854.09
2023-01-29T11:32:52.253Z,101849.72
2023-01-29T11:35:57.622Z,101838.34
2023-01-29T11:39:13.112Z,101833.13
2023-01-29T11:42:21.628Z,101826.09
2023-01-29T11:45:29.829Z,101826.97
2023-01-29T11:48:43.010Z,101815.59
2023-01-29T11:51:53.956Z,101812.06
2023-01-29T11:55:00.715Z,101806.84
2023-01-29T11:58:07.474Z,101804.22
2023-01-29T12:01:11.567Z,101793.72
2023-01-29T12:04:19.670Z,101790.22
2023-01-29T12:07:23.970Z,101785.81
2023-01-29T12:10:36.419Z,101780.56
2023-01-29T12:13:40.782Z,101775.31
2023-01-29T12:16:52.926Z,101769.19
2023-01-29T12:20:00.112Z,101769.19
2023-01-29T12:23:12.279Z,101758.66
2023-01-29T12:26:17.831Z,101751.66
2023-01-29T12:29:32.263Z,101739.41
2023-01-29T12:32:42.032Z,101749.94
2023-01-29T12:35:48.819Z,101734.16
2023-01-29T12:38:53.005Z,101729.81
2023-01-29T12:42:00.586Z,101724.53
2023-01-29T12:45:08.922Z,101721.88
2023-01-29T12:48:15.360Z,101721.03
2023-01-29T12:51:21.184Z,101714.00
2023-01-29T12:54:33.362Z,101709.63
2023-01-29T12:57:42.570Z,101697.38
2023-01-29T13:00:47.472Z,101694.78
2023-01-29T13:03:54.553Z,101693.03
2023-01-29T13:07:06.076Z,101689.50
2023-01-29T13:10:15.067Z,101682.50
2023-01-29T13:13:25.896Z,101672.00
2023-01-29T13:16:34.421Z,101664.13
2023-01-29T13:19:41.874Z,101652.75
2023-01-29T13:22:45.143Z,101663.25
2023-01-29T13:25:51.552Z,101659.75
2023-01-29T13:28:54.629Z,101645.75
2023-01-29T13:32:00.670Z,101648.38
2023-01-29T13:35:07.353Z,101649.25
2023-01-29T13:38:25.811Z,101647.47
2023-01-29T13:41:39.836Z,101647.47
2023-01-29T13:44:42.734Z,101636.97
2023-01-29T13:47:46.239Z,101647.50
2023-01-29T13:50:49.450Z,101639.63
2023-01-29T13:53:58.275Z,101629.13
2023-01-29T13:57:02.882Z,101622.97
2023-01-29T14:00:06.483Z,101622.09
2023-01-29T14:04:04.240Z,101615.97
2023-01-29T14:07:49.762Z,101615.06
2023-01-29T14:11:35.703Z,101600.19
2023-01-29T14:15:22.720Z,101600.22
2023-01-29T14:18:27.185Z,101594.97
2023-01-29T14:21:31.741Z,101578.34
2023-01-29T14:24:35.732Z,101584.47
2023-01-29T14:27:38.590Z,101579.22
2023-01-29T14:30:46.593Z,101580.94
2023-01-29T14:33:49.882Z,101566.97
2023-01-29T14:36:56.238Z,101567.88
2023-01-29T14:40:08.955Z,101559.97
2023-01-29T14:43:19.930Z,101558.25
2023-01-29T14:46:45.290Z,101556.50
2023-01-29T14:49:55.568Z,101560.00
2023-01-29T14:53:02.788Z,101548.59
2023-01-29T14:56:15.194Z,101555.63
2023-01-29T14:59:21.791Z,101544.19
2023-01-29T15:02:33.163Z,101546.84
2023-01-29T15:05:38.874Z,101537.25
2023-01-29T15:08:46.610Z,101543.34
2023-01-29T15:11:57.935Z,101530.22
2023-01-29T15:15:08.858Z,101526.72
2023-01-29T15:18:16.701Z,101524.16
2023-01-29T15:21:20.674Z,101524.13
2023-01-29T15:24:23.260Z,101526.75
2023-01-29T15:27:27.180Z,101524.13
2023-01-29T15:30:34.027Z,101529.38
2023-01-29T15:33:38.507Z,101521.50
2023-01-29T15:36:41.262Z,101509.22
2023-01-29T15:39:45.036Z,101502.28
2023-01-29T15:42:49.243Z,101499.66
2023-01-29T15:45:53.166Z,101499.69
2023-01-29T15:48:58.097Z,101485.66
2023-01-29T15:52:04.409Z,101490.91
2023-01-29T15:55:08.722Z,101485.69
2023-01-29T15:58:18.281Z,101479.53
2023-01-29T16:01:21.547Z,101475.19
2023-01-29T16:04:28.789Z,101461.19
2023-01-29T16:07:32.490Z,101458.56
2023-01-29T16:10:35.302Z,101452.44
2023-01-29T16:13:44.096Z,101446.34
2023-01-29T16:16:48.501Z,101446.34
2023-01-29T16:19:56.934Z,101451.53
2023-01-29T16:23:00.617Z,101447.19
2023-01-29T16:26:06.601Z,101446.31
2023-01-29T16:29:12.905Z,101448.06
2023-01-29T16:32:16.703Z,101442.81
2023-01-29T16:35:19.893Z,101437.56
2023-01-29T16:38:30.517Z,101446.28
2023-01-29T16:41:35.834Z,101442.78
2023-01-29T16:44:40.893Z,101440.13
2023-01-29T16:47:43.635Z,101438.41
2023-01-29T16:50:54.913Z,101428.81
2023-01-29T16:54:09.179Z,101425.31
2023-01-29T16:57:17.123Z,101423.47
2023-01-29T17:00:25.347Z,101401.69
2023-01-29T17:03:31.249Z,101403.47
2023-01-29T17:06:35.001Z,101405.16
2023-01-29T17:09:38.804Z,101393.78
2023-01-29T17:12:41.477Z,101384.22
2023-01-29T17:15:48.427Z,101392.13
2023-01-29T17:18:51.114Z,101378.03
2023-01-29T17:21:54.013Z,101379.78
2023-01-29T17:24:56.603Z,101371.97
2023-01-29T17:28:02.152Z,101368.47
2023-01-29T17:31:07.446Z,101371.91
2023-01-29T17:34:12.690Z,101367.63
2023-01-29T17:37:16.343Z,101351.84
2023-01-29T17:40:34.580Z,101346.59
2023-01-29T17:43:37.174Z,101343.06
2023-01-29T17:46:41.112Z,101347.44
2023-01-29T17:49:44.019Z,101344.81
2023-01-29T17:52:46.654Z,101320.31
2023-01-29T17:55:49.627Z,101330.94
2023-01-29T17:58:52.192Z,101322.09
2023-01-29T18:01:56.587Z,101321.22
2023-01-29T18:04:59.188Z,101316.88
2023-01-29T18:08:02.240Z,101315.22
2023-01-29T18:11:05.128Z,101309.13
2023-01-29T18:14:13.583Z,101314.38
2023-01-29T18:17:22.221Z,101299.47
2023-01-29T18:20:26.399Z,101297.72
2023-01-29T18:23:31.094Z,101282.00
2023-01-29T18:26:33.877Z,101280.22
2023-01-29T18:29:36.707Z,101259.16
2023-01-29T18:32:40.698Z,101255.72
2023-01-29T18:35:44.549Z,101253.19
2023-01-29T18:38:47.135Z,101236.53
2023-01-29T18:41:49.708Z,101236.44
2023-01-29T18:44:52.306Z,101247.84
2023-01-29T18:47:56.395Z,101231.34
2023-01-29T18:50:59.499Z,101226.97
2023-01-29T18:54:02.080Z,101232.28
2023-01-29T18:57:13.004Z,101218.25
2023-01-29T19:00:18.298Z,101213.06
2023-01-29T19:03:23.097Z,101213.00
2023-01-29T19:06:25.699Z,101199.88
2023-01-29T19:09:28.488Z,101199.91
2023-01-29T19:12:31.119Z,101196.41
2023-01-29T19:15:33.838Z,101184.19
2023-01-29T19:18:38.649Z,101162.38
2023-01-29T19:21:41.232Z,101149.19
2023-01-29T19:24:43.828Z,101159.69
2023-01-29T19:27:46.563Z,101157.13
2023-01-29T19:30:49.206Z,101150.00
2023-01-29T19:33:53.163Z,101148.31
2023-01-29T19:36:55.758Z,101135.25
2023-01-29T19:39:58.380Z,101139.63
2023-01-29T19:43:00.985Z,101129.97
2023-01-29T19:46:03.547Z,101137.78
2023-01-29T19:49:07.771Z,101127.31
2023-01-29T19:52:14.784Z,101124.66
2023-01-29T19:55:17.860Z,101113.28
2023-01-29T19:58:20.763Z,101105.44
2023-01-29T20:01:24.598Z,101102.00
2023-01-29T20:04:29.154Z,101109.03
2023-01-29T20:07:31.737Z,101114.19
2023-01-29T20:10:34.367Z,101107.19
2023-01-29T20:13:36.987Z,101101.97
2023-01-29T20:16:39.673Z,101094.13
2023-01-29T20:19:43.954Z,101094.97
2023-01-29T20:22:46.832Z,101084.53
2023-01-29T20:25:49.533Z,101082.78
2023-01-29T20:28:52.155Z,101071.38
2023-01-29T20:31:54.732Z,101086.22
2023-01-29T20:34:58.666Z,101072.28
2023-01-29T20:38:01.663Z,101066.16
2023-01-29T20:41:05.605Z,101055.56
2023-01-29T20:44:08.653Z,101059.94
2023-01-29T20:47:11.871Z,101064.25
2023-01-29T20:50:18.782Z,101058.28
2023-01-29T20:53:21.827Z,101041.53
2023-01-29T20:56:36.836Z,101039.94
2023-01-29T20:59:45.141Z,101034.66
2023-01-29T21:02:47.721Z,101012.88
2023-01-29T21:05:52.157Z,101021.56
2023-01-29T21:08:54.748Z,101021.66
2023-01-29T21:11:57.400Z,101008.47
2023-01-29T21:14:59.992Z,101004.94
2023-01-29T21:18:04.439Z,100983.91
2023-01-29T21:21:08.430Z,100981.19
2023-01-29T21:24:12.856Z,100975.13
2023-01-29T21:27:15.482Z,100968.09
2023-01-29T21:30:19.339Z,100967.25
2023-01-29T21:33:22.888Z,100967.13
2023-01-29T21:36:26.888Z,100957.47
2023-01-29T21:39:29.466Z,100960.03
2023-01-29T21:42:49.413Z,100959.31
2023-01-29T21:45:56.772Z,100940.97
2023-01-29T21:48:59.459Z,100942.69
2023-01-29T21:52:03.387Z,100933.78
2023-01-29T21:55:06.817Z,100922.59
2023-01-29T21:58:09.424Z,100919.03
2023-01-29T22:01:35.845Z,100914.59
2023-01-29T22:04:35.388Z,100911.16
2023-01-29T22:07:39.574Z,100925.97
2023-01-29T22:10:42.776Z,100922.47
2023-01-29T22:13:45.525Z,100909.16
2023-01-29T22:16:48.241Z,100909.28
2023-01-29T22:19:50.859Z,100890.88
2023-01-29T22:22:54.788Z,100887.41
2023-01-29T22:26:03.214Z,100876.78
2023-01-29T22:29:05.845Z,100850.63
2023-01-29T22:32:09.458Z,100857.66
2023-01-29T22:35:12.039Z,100837.31
2023-01-29T22:38:15.973Z,100837.47
2023-01-29T22:41:18.569Z,100837.56
2023-01-29T22:44:21.157Z,100837.59
2023-01-29T22:47:23.773Z,100832.41
2023-01-29T22:50:26.387Z,100817.47
2023-01-29T22:53:30.349Z,100818.28
2023-01-29T22:56:32.911Z,100819.19
2023-01-29T22:59:35.516Z,100798.19
2023-01-29T23:02:38.468Z,100791.25
2023-01-29T23:05:41.029Z,100771.94
2023-01-29T23:08:45.335Z,100757.88
2023-01-29T23:11:47.953Z,100749.03
2023-01-29T23:14:50.526Z,100734.31
2023-01-29T23:17:53.141Z,100738.75
2023-01-29T23:20:57.794Z,100730.88
2023-01-29T23:24:01.774Z,100720.47
2023-01-29T23:27:16.345Z,100708.44
2023-01-29T23:30:19.520Z,100682.03
2023-01-29T23:33:22.402Z,100671.75
2023-01-29T23:36:24.998Z,100650.72
2023-01-29T23:39:28.929Z,100636.72
2023-01-29T23:42:31.505Z,100635.84
2023-01-29T23:45:34.093Z,100640.09
2023-01-29T23:48:36.736Z,100633.81
2023-01-29T23:51:39.453Z,100636.38
2023-01-29T23:54:43.412Z,100629.59
2023-01-29T23:57:46.043Z,100619.06
